createdAt,value
2023-04-20T00:01:38.976Z,10.57
2023-04-20T00:04:42.751Z,11.77
2023-04-20T00:07:48.850Z,11.07
2023-04-20T00:10:52.552Z,10.73
2023-04-20T00:13:56.145Z,13.20
2023-04-20T00:16:59.844Z,12.03
2023-04-20T00:20:04.072Z,14.00
2023-04-20T00:23:09.208Z,13.47
2023-04-20T00:26:12.740Z,12.47
2023-04-20T00:29:18.280Z,11.57
2023-04-20T00:32:21.971Z,10.53
2023-04-20T00:35:25.798Z,11.67
2023-04-20T00:38:30.991Z,11.03
2023-04-20T00:41:36.275Z,11.07
2023-04-20T00:44:39.902Z,14.90
2023-04-20T00:47:43.883Z,15.80
2023-04-20T00:50:48.199Z,17.13
2023-04-20T00:53:53.264Z,18.27
2023-04-20T00:56:58.095Z,17.37
2023-04-20T01:00:02.023Z,20.07
2023-04-20T01:03:06.388Z,15.30
2023-04-20T01:06:11.188Z,18.13
2023-04-20T01:09:16.435Z,15.07
2023-04-20T01:12:21.348Z,16.03
2023-04-20T01:15:25.010Z,16.57
2023-04-20T01:18:28.510Z,18.33
2023-04-20T01:21:33.697Z,15.73
2023-04-20T01:24:38.580Z,14.13
2023-04-20T01:27:42.233Z,13.80
2023-04-20T01:30:45.778Z,12.97
2023-04-20T01:33:49.402Z,15.13
2023-04-20T01:36:53.038Z,11.87
2023-04-20T01:39:58.472Z,12.83
2023-04-20T01:43:01.984Z,11.80
2023-04-20T01:46:06.236Z,11.03
2023-04-20T01:49:10.628Z,12.23
2023-04-20T01:52:14.208Z,10.53
2023-04-20T01:55:20.235Z,11.03
2023-04-20T01:58:23.941Z,8.57
2023-04-20T02:01:27.614Z,11.97
2023-04-20T02:04:31.381Z,11.63
2023-04-20T02:07:34.941Z,11.00
2023-04-20T02:10:40.027Z,11.70
2023-04-20T02:13:45.727Z,12.47
2023-04-20T02:16:49.397Z,12.93
2023-04-20T02:19:52.958Z,10.10
2023-04-20T02:22:56.598Z,10.53
2023-04-20T02:26:01.561Z,9.87
2023-04-20T02:29:05.134Z,11.07
2023-04-20T02:32:10.982Z,10.50
2023-04-20T02:35:14.633Z,10.40
2023-04-20T02:38:19.420Z,11.47
2023-04-20T02:41:24.938Z,11.23
2023-04-20T02:44:28.547Z,10.83
2023-04-20T02:47:32.333Z,9.63
2023-04-20T02:50:38.133Z,10.73
2023-04-20T02:53:57.426Z,12.23
2023-04-20T02:57:07.288Z,10.70
2023-04-20T03:00:13.705Z,12.87
2023-04-20T03:03:35.803Z,10.43
2023-04-20T03:06:40.875Z,11.10
2023-04-20T03:09:47.485Z,13.30
2023-04-20T03:13:21.903Z,10.23
2023-04-20T03:16:37.998Z,10.77
2023-04-20T03:19:42.114Z,10.90
2023-04-20T03:22:45.823Z,11.83
2023-04-20T03:25:49.686Z,11.90
2023-04-20T03:29:17.831Z,13.87
2023-04-20T03:32:22.548Z,16.40
2023-04-20T03:35:26.225Z,15.50
2023-04-20T03:38:30.109Z,15.10
2023-04-20T03:41:33.634Z,15.33
2023-04-20T03:44:38.585Z,13.60
2023-04-20T03:47:42.695Z,13.03
2023-04-20T03:50:46.329Z,13.40
2023-04-20T03:53:49.974Z,13.07
2023-04-20T03:56:53.747Z,12.77
2023-04-20T03:59:59.862Z,10.70
2023-04-20T04:03:10.565Z,14.93
2023-04-20T04:06:14.385Z,13.37
2023-04-20T04:09:18.729Z,12.07
2023-04-20T04:12:22.578Z,13.20
2023-04-20T04:15:28.809Z,11.60
2023-04-20T04:18:44.821Z,11.20
2023-04-20T04:21:48.534Z,11.57
2023-04-20T04:24:54.565Z,10.87
2023-04-20T04:27:58.233Z,11.20
2023-04-20T04:31:06.613Z,17.00
2023-04-20T04:34:12.565Z,10.83
2023-04-20T04:37:28.346Z,15.23
2023-04-20T04:40:33.874Z,11.97
2023-04-20T04:43:39.708Z,12.00
2023-04-20T04:46:57.964Z,12.60
2023-04-20T04:50:06.074Z,13.13
2023-04-20T04:53:09.920Z,12.83
2023-04-20T04:56:14.588Z,15.40
2023-04-20T04:59:18.411Z,18.47
2023-04-20T05:02:23.790Z,15.10
2023-04-20T05:05:27.526Z,14.23
2023-04-20T05:08:31.239Z,11.80
2023-04-20T05:11:34.949Z,14.03
2023-04-20T05:14:38.958Z,11.67
2023-04-20T05:17:44.440Z,13.37
2023-04-20T05:20:48.137Z,12.93
2023-04-20T05:23:51.858Z,16.23
2023-04-20T05:26:55.604Z,14.57
2023-04-20T05:30:09.496Z,15.37
2023-04-20T05:33:24.600Z,11.40
2023-04-20T05:36:29.734Z,17.03
2023-04-20T05:39:33.449Z,11.57
2023-04-20T05:42:37.023Z,16.47
2023-04-20T05:45:40.808Z,14.77
2023-04-20T05:48:46.256Z,14.10
2023-04-20T05:51:50.002Z,11.27
2023-04-20T05:54:54.492Z,14.37
2023-04-20T05:57:58.616Z,10.87
2023-04-20T06:01:02.833Z,14.33
2023-04-20T06:04:08.219Z,10.50
2023-04-20T06:07:11.960Z,10.77
2023-04-20T06:10:15.868Z,9.70
2023-04-20T06:13:19.584Z,10.37
2023-04-20T06:16:23.288Z,11.07
2023-04-20T06:19:28.589Z,8.63
2023-04-20T06:22:32.325Z,8.87
2023-04-20T06:25:37.829Z,7.90
2023-04-20T06:28:41.877Z,10.47
2023-04-20T06:31:45.743Z,9.77
2023-04-20T06:34:52.644Z,11.87
2023-04-20T06:37:57.881Z,11.67
2023-04-20T06:41:02.952Z,10.70
2023-04-20T06:44:06.691Z,10.27
2023-04-20T06:47:10.437Z,10.77
2023-04-20T06:50:15.722Z,10.73
2023-04-20T06:53:19.425Z,11.23
2023-04-20T06:56:23.363Z,7.30
2023-04-20T06:59:27.021Z,8.47
2023-04-20T07:02:30.906Z,12.33
2023-04-20T07:05:37.985Z,14.47
2023-04-20T07:08:41.813Z,11.03
2023-04-20T07:11:45.579Z,6.50
2023-04-20T07:14:49.288Z,9.63
2023-04-20T07:17:52.952Z,10.90
2023-04-20T07:20:58.114Z,9.47
2023-04-20T07:24:01.793Z,10.27
2023-04-20T07:27:05.970Z,8.27
2023-04-20T07:30:11.398Z,9.80
2023-04-20T07:33:15.244Z,11.00
2023-04-20T07:36:21.925Z,10.33
2023-04-20T07:39:28.794Z,7.37
2023-04-20T07:42:34.252Z,9.57
2023-04-20T07:45:41.755Z,10.00
2023-04-20T07:48:45.610Z,11.53
2023-04-20T07:51:50.739Z,14.73
2023-04-20T07:54:54.893Z,10.20
2023-04-20T07:57:58.866Z,15.03
2023-04-20T08:01:02.507Z,8.40
2023-04-20T08:04:06.901Z,10.63
2023-04-20T08:07:12.595Z,9.30
2023-04-20T08:10:16.439Z,6.67
2023-04-20T08:13:20.280Z,8.97
2023-04-20T08:16:24.138Z,12.13
2023-04-20T08:19:27.858Z,14.07
2023-04-20T08:22:33.788Z,11.10
2023-04-20T08:25:40.575Z,11.67
2023-04-20T08:28:45.396Z,12.80
2023-04-20T08:31:51.325Z,12.53
2023-04-20T08:34:57.131Z,8.57
2023-04-20T08:38:02.592Z,9.77
2023-04-20T08:41:06.655Z,9.93
2023-04-20T08:44:10.324Z,12.40
2023-04-20T08:47:16.570Z,12.27
2023-04-20T08:50:21.100Z,10.60
2023-04-20T08:53:26.354Z,9.63
2023-04-20T08:56:37.251Z,9.63
2023-04-20T08:59:41.339Z,9.00
2023-04-20T09:02:56.238Z,10.48
2023-04-20T09:06:00.137Z,10.43
2023-04-20T09:09:11.904Z,8.55
2023-04-20T09:12:15.539Z,10.10
2023-04-20T09:15:29.325Z,15.15
2023-04-20T09:18:33.086Z,12.60
2023-04-20T09:21:36.905Z,12.00
2023-04-20T09:24:43.726Z,9.52
2023-04-20T09:27:57.249Z,11.80
2023-04-20T09:31:01.528Z,7.75
2023-04-20T09:34:05.936Z,8.18
2023-04-20T09:37:11.809Z,9.52
2023-04-20T09:40:18.012Z,8.70
2023-04-20T09:43:25.802Z,10.27
2023-04-20T09:46:32.788Z,10.68
2023-04-20T09:49:36.883Z,8.32
2023-04-20T09:52:42.311Z,10.10
2023-04-20T09:55:49.801Z,11.90
2023-04-20T09:58:54.219Z,12.63
2023-04-20T10:01:57.929Z,6.50
2023-04-20T10:05:02.272Z,7.72
2023-04-20T10:08:06.494Z,9.10
2023-04-20T10:11:11.990Z,7.60
2023-04-20T10:14:20.505Z,9.77
2023-04-20T10:17:31.635Z,7.25
2023-04-20T10:20:35.489Z,8.77
2023-04-20T10:23:49.705Z,9.52
2023-04-20T10:26:54.845Z,5.68
2023-04-20T10:29:58.585Z,6.85
2023-04-20T10:33:06.759Z,9.50
2023-04-20T10:36:10.499Z,8.13
2023-04-20T10:39:19.776Z,7.45
2023-04-20T10:42:26.678Z,11.55
2023-04-20T10:45:40.471Z,6.88
2023-04-20T10:48:52.792Z,6.13
2023-04-20T10:51:57.515Z,8.48
2023-04-20T10:55:01.361Z,10.60
2023-04-20T10:58:06.724Z,8.20
2023-04-20T11:01:10.518Z,7.75
2023-04-20T11:04:18.308Z,11.55
2023-04-20T11:07:22.284Z,10.75
2023-04-20T11:10:38.255Z,11.60
2023-04-20T11:13:43.584Z,8.10
2023-04-20T11:16:54.522Z,10.73
2023-04-20T11:20:09.466Z,11.38
2023-04-20T11:23:13.353Z,10.15
2023-04-20T11:26:17.407Z,10.77
2023-04-20T11:29:36.147Z,11.55
2023-04-20T11:32:40.142Z,9.83
2023-04-20T11:35:44.603Z,7.30
2023-04-20T11:38:48.321Z,8.27
2023-04-20T11:41:52.542Z,7.93
2023-04-20T11:44:57.832Z,9.30
2023-04-20T11:48:01.622Z,10.30
2023-04-20T11:51:05.412Z,11.00
2023-04-20T11:54:09.184Z,11.43
2023-04-20T11:57:13.330Z,8.88
2023-04-20T12:00:19.793Z,8.95
2023-04-20T12:03:24.579Z,10.95
2023-04-20T12:06:29.001Z,8.00
2023-04-20T12:09:36.340Z,9.70
2023-04-20T12:12:42.303Z,9.35
2023-04-20T12:15:47.539Z,7.22
2023-04-20T12:18:51.385Z,9.98
2023-04-20T12:21:55.233Z,8.50
2023-04-20T12:24:58.957Z,7.10
2023-04-20T12:28:07.020Z,7.70
2023-04-20T12:31:12.411Z,6.97
2023-04-20T12:34:16.357Z,7.75
2023-04-20T12:37:20.907Z,7.85
2023-04-20T12:40:24.950Z,7.82
2023-04-20T12:43:28.899Z,8.40
2023-04-20T12:46:34.134Z,6.93
2023-04-20T12:49:37.901Z,8.25
2023-04-20T12:52:41.835Z,5.93
2023-04-20T12:55:45.462Z,6.07
2023-04-20T12:58:49.168Z,7.25
2023-04-20T13:01:54.467Z,5.57
2023-04-20T13:04:58.226Z,7.03
2023-04-20T13:08:01.973Z,6.72
2023-04-20T13:11:06.700Z,6.30
2023-04-20T13:14:10.313Z,6.10
2023-04-20T13:17:15.526Z,8.25
2023-04-20T13:20:19.232Z,5.63
2023-04-20T13:23:23.694Z,5.70
2023-04-20T13:26:27.739Z,7.03
2023-04-20T13:29:31.808Z,4.95
2023-04-20T13:32:38.843Z,4.65
2023-04-20T13:35:43.473Z,7.25
2023-04-20T13:38:47.570Z,4.65
2023-04-20T13:41:51.318Z,5.05
2023-04-20T13:44:55.047Z,5.50
2023-04-20T13:48:00.254Z,3.97
2023-04-20T13:51:04.051Z,4.72
2023-04-20T13:54:08.275Z,6.97
2023-04-20T13:57:12.046Z,8.52
2023-04-20T14:00:16.360Z,5.93
2023-04-20T14:03:21.762Z,6.68
2023-04-20T14:06:25.758Z,8.05
2023-04-20T14:09:29.895Z,6.82
2023-04-20T14:12:34.382Z,6.45
2023-04-20T14:15:38.303Z,7.32
2023-04-20T14:18:43.859Z,6.78
2023-04-20T14:21:47.879Z,5.43
2023-04-20T14:24:51.762Z,7.38
2023-04-20T14:27:55.604Z,4.50
2023-04-20T14:31:01.103Z,4.78
2023-04-20T14:34:06.469Z,4.55
2023-04-20T14:37:10.404Z,4.50
2023-04-20T14:40:14.612Z,4.65
2023-04-20T14:43:18.480Z,4.50
2023-04-20T14:46:22.222Z,5.70
2023-04-20T14:49:27.592Z,5.07
2023-04-20T14:52:31.384Z,8.57
2023-04-20T14:55:35.221Z,4.85
2023-04-20T14:58:40.493Z,6.00
2023-04-20T15:01:55.154Z,6.45
2023-04-20T15:05:10.243Z,5.35
2023-04-20T15:08:14.948Z,5.75
2023-04-20T15:11:18.802Z,5.22
2023-04-20T15:14:22.554Z,6.70
2023-04-20T15:17:26.606Z,5.57
2023-04-20T15:20:31.891Z,6.32
2023-04-20T15:23:35.741Z,8.23
2023-04-20T15:26:39.654Z,6.88
2023-04-20T15:29:43.502Z,7.68
2023-04-20T15:32:47.454Z,6.50
2023-04-20T15:35:52.752Z,8.30
2023-04-20T15:38:57.992Z,5.83
2023-04-20T15:42:03.223Z,5.63
2023-04-20T15:45:08.674Z,5.53
2023-04-20T15:48:12.544Z,5.78
2023-04-20T15:51:19.380Z,6.75
2023-04-20T15:54:23.948Z,7.45
2023-04-20T15:57:27.862Z,7.22
2023-04-20T16:00:31.753Z,9.20
2023-04-20T16:03:35.802Z,6.73
2023-04-20T16:06:42.031Z,6.53
2023-04-20T16:09:45.981Z,6.20
2023-04-20T16:12:49.814Z,9.93
2023-04-20T16:15:53.927Z,7.47
2023-04-20T16:18:57.840Z,5.80
2023-04-20T16:22:03.002Z,5.87
2023-04-20T16:25:07.859Z,6.90
2023-04-20T16:28:11.649Z,6.07
2023-04-20T16:31:16.045Z,7.20
2023-04-20T16:34:20.537Z,5.33
2023-04-20T16:37:26.106Z,8.17
2023-04-20T16:40:30.023Z,5.63
2023-04-20T16:43:33.843Z,6.10
2023-04-20T16:46:37.707Z,8.40
2023-04-20T16:49:41.566Z,5.93
2023-04-20T16:52:46.755Z,5.40
2023-04-20T16:55:50.694Z,9.40
2023-04-20T16:58:54.555Z,6.43
2023-04-20T17:01:58.415Z,7.27
2023-04-20T17:05:02.378Z,8.37
2023-04-20T17:08:08.013Z,6.03
2023-04-20T17:11:11.832Z,7.50
2023-04-20T17:14:16.327Z,6.97
2023-04-20T17:17:20.186Z,5.90
2023-04-20T17:20:23.977Z,7.60
2023-04-20T17:23:29.907Z,6.77
2023-04-20T17:26:33.721Z,5.70
2023-04-20T17:29:38.727Z,7.43
2023-04-20T17:32:42.807Z,6.13
2023-04-20T17:35:46.735Z,6.03
2023-04-20T17:38:51.909Z,5.87
2023-04-20T17:41:55.692Z,8.37
2023-04-20T17:44:59.333Z,8.00
2023-04-20T17:48:03.154Z,6.87
2023-04-20T17:51:06.875Z,6.57
2023-04-20T17:54:12.094Z,9.07
2023-04-20T17:57:15.791Z,6.03
2023-04-20T18:00:20.716Z,6.60
2023-04-20T18:03:24.466Z,6.70
2023-04-20T18:06:28.373Z,4.97
2023-04-20T18:09:33.498Z,4.97
2023-04-20T18:12:37.246Z,5.23
2023-04-20T18:15:41.331Z,9.63
2023-04-20T18:18:45.110Z,7.17
2023-04-20T18:21:48.932Z,7.77
2023-04-20T18:24:54.492Z,5.67
2023-04-20T18:27:58.225Z,6.10
2023-04-20T18:31:02.711Z,5.70
2023-04-20T18:34:07.829Z,5.80
2023-04-20T18:37:14.294Z,8.73
2023-04-20T18:40:19.516Z,6.17
2023-04-20T18:43:23.302Z,7.50
2023-04-20T18:46:27.221Z,5.63
2023-04-20T18:49:32.190Z,5.00
2023-04-20T18:52:36.142Z,4.87
2023-04-20T18:55:41.596Z,4.70
2023-04-20T18:58:45.483Z,5.77
2023-04-20T19:01:50.147Z,6.87
2023-04-20T19:04:54.122Z,7.10
2023-04-20T19:07:57.915Z,5.40
2023-04-20T19:11:03.103Z,8.67
2023-04-20T19:14:06.933Z,8.20
2023-04-20T19:17:10.620Z,6.33
2023-04-20T19:20:14.645Z,6.50
2023-04-20T19:23:18.304Z,5.97
2023-04-20T19:26:24.371Z,6.67
2023-04-20T19:29:28.211Z,6.80
2023-04-20T19:32:31.983Z,5.53
2023-04-20T19:35:35.716Z,7.10
2023-04-20T19:38:39.453Z,6.93
2023-04-20T19:41:44.893Z,7.13
2023-04-20T19:44:48.854Z,7.70
2023-04-20T19:47:53.188Z,6.43
2023-04-20T19:50:58.040Z,7.40
2023-04-20T19:54:03.764Z,9.30
2023-04-20T19:57:09.093Z,5.80
2023-04-20T20:00:14.276Z,6.60
2023-04-20T20:03:18.592Z,5.97
2023-04-20T20:06:23.802Z,5.93
2023-04-20T20:09:27.778Z,5.87
2023-04-20T20:12:32.982Z,7.43
2023-04-20T20:15:37.678Z,6.87
2023-04-20T20:18:41.955Z,8.10
2023-04-20T20:21:45.591Z,6.00
2023-04-20T20:24:51.388Z,7.03
2023-04-20T20:27:56.680Z,6.00
2023-04-20T20:31:00.774Z,6.73
2023-04-20T20:34:04.525Z,7.77
2023-04-20T20:37:10.576Z,11.07
2023-04-20T20:40:15.509Z,9.03
2023-04-20T20:43:20.682Z,7.03
2023-04-20T20:46:24.353Z,9.73
2023-04-20T20:49:28.104Z,7.27
2023-04-20T20:52:31.807Z,8.30
2023-04-20T20:55:35.540Z,7.10
2023-04-20T20:58:40.697Z,7.83
2023-04-20T21:01:44.431Z,9.60
2023-04-20T21:04:48.178Z,10.30
2023-04-20T21:07:51.890Z,8.70
2023-04-20T21:10:55.662Z,8.47
2023-04-20T21:14:02.972Z,11.13
2023-04-20T21:17:06.823Z,7.93
2023-04-20T21:20:11.811Z,12.80
2023-04-20T21:23:16.133Z,9.03
2023-04-20T21:26:19.792Z,8.80
2023-04-20T21:29:24.893Z,10.70
2023-04-20T21:32:28.651Z,9.70
2023-04-20T21:35:32.451Z,7.27
2023-04-20T21:38:36.483Z,10.20
2023-04-20T21:41:40.767Z,8.13
2023-04-20T21:44:45.889Z,10.57
2023-04-20T21:47:49.590Z,11.23
2023-04-20T21:50:53.308Z,10.40
2023-04-20T21:53:56.971Z,9.40
2023-04-20T21:57:00.655Z,7.33
2023-04-20T22:00:06.519Z,6.57
2023-04-20T22:03:18.348Z,6.83
2023-04-20T22:06:22.315Z,6.50
2023-04-20T22:09:26.177Z,6.60
2023-04-20T22:12:39.329Z,6.80
2023-04-20T22:15:47.388Z,6.87
2023-04-20T22:18:51.891Z,5.90
2023-04-20T22:21:55.571Z,6.30
2023-04-20T22:24:59.268Z,8.77
2023-04-20T22:28:02.979Z,6.63
2023-04-20T22:31:08.258Z,8.90
2023-04-20T22:34:11.976Z,6.50
2023-04-20T22:37:16.843Z,9.50
2023-04-20T22:40:20.512Z,5.70
2023-04-20T22:43:24.506Z,5.70
2023-04-20T22:46:29.742Z,5.90
2023-04-20T22:49:33.576Z,6.83
2023-04-20T22:52:38.765Z,6.03
2023-04-20T22:55:42.422Z,6.70
2023-04-20T22:58:46.049Z,7.40
2023-04-20T23:01:51.126Z,8.63
2023-04-20T23:04:54.908Z,8.03
2023-04-20T23:08:00.728Z,8.33
2023-04-20T23:11:04.946Z,8.70
2023-04-20T23:14:09.235Z,8.47
2023-04-20T23:17:14.285Z,9.57
2023-04-20T23:20:17.965Z,8.80
2023-04-20T23:23:21.668Z,8.93
2023-04-20T23:26:25.755Z,10.83
2023-04-20T23:29:30.206Z,9.07
2023-04-20T23:32:35.849Z,8.73
2023-04-20T23:35:39.500Z,10.43
2023-04-20T23:38:43.364Z,9.30
2023-04-20T23:41:47.197Z,11.83
2023-04-20T23:44:50.739Z,7.73
2023-04-20T23:47:56.066Z,8.37
2023-04-20T23:50:59.805Z,9.60
2023-04-20T23:54:03.694Z,10.33
2023-04-20T23:57:07.345Z,13.50
